Terminal Aerodrome Forecast
Issued by NWS

Home | Current Version | Previous Version | Graphics & Text | Print | Product List | Glossary On
Versions: 1 2 3 4 5 6 7 8 9 10 11 12 13 14 15 16 17 18 19 20 21 22 23 24 25 26 27
000
FTUS43 KABR 272000 AAB
TAFMBG
TAF AMD
KMBG 272051Z 2721/2818 18011KT P6SM SCT024 BKN110
     FM272200 12006KT P6SM BKN110
     FM281500 15014KT P6SM BKN150=

USA.gov is the U.S. government's official web portal to all federal, state and local government web resources and services.